EGPH/EDI METAR and TAF weather

Enter ICAO airport designator
Station Type Date Time Source
EGPH METAR 2020/02/29 03:20 UTC NOAA

EGPH 290320Z 10005KT 9999 -RA BKN023 07/07 Q0971


Station Type Date Time Source
EGPH Decoded METAR 2020/02/29 03:20 UTC NOAA

Edinburgh Airport, United Kingdom (EGPH) 55-57N 003-21W 0M
Feb 28, 2020 - 10:20 PM EST / 2020.02.29 0320 UTC
Wind: from the E (100 degrees) at 6 MPH (5 KT):0
Visibility: greater than 7 mile(s):0
Sky conditions: mostly cloudy
Weather: light rain
Temperature: 44 F (7 C)
Dew Point: 44 F (7 C)
Relative Humidity: 100%
Pressure (altimeter): 28.67 in. Hg (0971 hPa)
ob: EGPH 290320Z 10005KT 9999 -RA BKN023 07/07 Q0971
cycle: 3

Station Type Date Time Source
EGPH TAF 2020/02/28 21:51 UTC NOAA

TAF
AMD TAF
AMD EGPH 282147Z 2821/2918 27005KT 9999 SCT002
TEMPO 2821/2908 2000 RADZ BR BKN001
BECMG 2905/2908 25015G25KT

Example: see airport list